Time;durP1;ratioP1;P1;durP2;ratioP2;P2;SDS_P1;SDS_P2;PMS_P1;PMS_P2;Temp;Humidity;BMP_temperature;BMP_pressure;BME280_temperature;BME280_humidity;BME280_pressure;Samples;Min_cycle;Max_cycle;Signal;HPM_P1;HPM_P2
2022/05/09 00:00:12;;;;;;;12.95;2.78;;;7.00;99.90;;;;;;5093872;28;20061;-77
2022/05/09 00:02:38;;;;;;;6.63;2.92;;;7.00;99.90;;;;;;5094368;28;20039;-77
2022/05/09 00:05:04;;;;;;;9.65;3.28;;;7.00;99.90;;;;;;5094267;28;20105;-77
2022/05/09 00:07:30;;;;;;;9.80;2.83;;;7.00;99.90;;;;;;5094432;28;20051;-77
2022/05/09 00:09:56;;;;;;;15.68;3.92;;;6.90;99.90;;;;;;5093862;28;20559;-77
2022/05/09 00:12:21;;;;;;;14.35;3.33;;;6.90;99.90;;;;;;5094155;28;20050;-77
2022/05/09 00:14:47;;;;;;;8.77;3.65;;;6.90;99.90;;;;;;5112410;28;20031;-77
2022/05/09 00:17:13;;;;;;;7.95;3.28;;;6.80;99.90;;;;;;5076847;28;20043;-77
2022/05/09 00:19:38;;;;;;;11.18;3.58;;;6.80;99.90;;;;;;5111781;28;20043;-77
2022/05/09 00:22:05;;;;;;;6.30;2.78;;;6.70;99.90;;;;;;5094285;28;20046;-77
2022/05/09 00:24:31;;;;;;;14.20;3.05;;;6.80;99.90;;;;;;5094047;28;20122;-77
2022/05/09 00:26:57;;;;;;;14.18;3.92;;;6.80;99.90;;;;;;5093914;28;20138;-77
2022/05/09 00:29:23;;;;;;;9.40;3.28;;;6.70;99.90;;;;;;5093942;28;20126;-77
2022/05/09 00:31:52;;;;;;;17.33;3.75;;;6.70;99.90;;;;;;5093436;28;20116;-77
2022/05/09 00:34:21;;;;;;;10.63;3.42;;;6.80;99.90;;;;;;5093903;28;20059;-77
2022/05/09 00:36:48;;;;;;;14.80;3.55;;;6.80;99.90;;;;;;5094027;28;20051;-77
2022/05/09 00:39:14;;;;;;;10.10;3.20;;;6.70;99.90;;;;;;5093684;28;20063;-77
2022/05/09 00:41:42;;;;;;;12.63;3.28;;;6.70;99.90;;;;;;5093621;28;20044;-77
2022/05/09 00:44:14;;;;;;;12.23;3.42;;;6.70;99.90;;;;;;5093720;28;20490;-77
2022/05/09 00:46:44;;;;;;;16.25;3.42;;;6.60;99.90;;;;;;5093498;28;20071;-77
2022/05/09 00:49:23;;;;;;;8.50;2.58;;;6.60;99.90;;;;;;5093634;28;20079;-77
2022/05/09 00:51:58;;;;;;;8.13;2.90;;;6.50;99.90;;;;;;5093346;28;20043;-77
2022/05/09 00:54:26;;;;;;;11.70;3.25;;;6.40;99.90;;;;;;5093457;28;20112;-77
2022/05/09 00:57:00;;;;;;;15.65;3.40;;;6.50;99.90;;;;;;5076810;28;20039;-77
2022/05/09 00:59:29;;;;;;;16.95;3.95;;;6.50;99.90;;;;;;5093312;28;20031;-77
2022/05/09 01:01:54;;;;;;;12.60;4.47;;;6.40;99.90;;;;;;5093367;28;20050;-78
2022/05/09 01:04:24;;;;;;;13.10;3.90;;;6.30;99.90;;;;;;5093795;28;20035;-77
2022/05/09 01:06:50;;;;;;;8.13;2.97;;;6.20;99.90;;;;;;5093434;28;20623;-77
2022/05/09 01:09:15;;;;;;;11.68;3.42;;;6.30;99.90;;;;;;5093189;28;20044;-77
2022/05/09 01:11:43;;;;;;;10.82;4.70;;;6.30;99.90;;;;;;5093255;28;20043;-77
2022/05/09 01:14:30;;;;;;;11.60;4.03;;;6.30;99.90;;;;;;5093551;28;20062;-77
2022/05/09 01:16:58;;;;;;;12.93;3.20;;;6.20;99.90;;;;;;5093542;28;20043;-77
2022/05/09 01:19:37;;;;;;;12.90;4.70;;;6.20;99.90;;;;;;5094043;28;20044;-79
2022/05/09 01:22:15;;;;;;;5.63;3.00;;;6.20;99.90;;;;;;5094911;28;20039;-78
2022/05/09 01:24:41;;;;;;;11.73;3.15;;;6.20;99.90;;;;;;5094871;28;20050;-78
2022/05/09 01:27:07;;;;;;;15.05;3.53;;;6.20;99.90;;;;;;5095404;28;20047;-79
2022/05/09 01:29:49;;;;;;;12.07;3.78;;;6.00;99.90;;;;;;5097083;28;20061;-79
2022/05/09 01:32:19;;;;;;;10.18;3.65;;;6.10;99.90;;;;;;5081468;28;20047;-79
2022/05/09 01:34:48;;;;;;;16.48;4.13;;;6.00;99.90;;;;;;5082012;28;20168;-79
2022/05/09 01:37:15;;;;;;;16.90;3.53;;;6.00;99.90;;;;;;5081400;28;20044;-79
2022/05/09 01:39:41;;;;;;;12.60;4.07;;;6.00;99.90;;;;;;5081187;28;20039;-79
2022/05/09 01:42:09;;;;;;;14.75;3.33;;;6.00;99.90;;;;;;5082177;28;20044;-79
2022/05/09 01:44:37;;;;;;;11.45;3.50;;;5.90;99.90;;;;;;5098381;28;20032;-79
2022/05/09 01:49:48;;;;;;;11.85;3.50;;;5.90;99.90;;;;;;5098264;28;20451;-79
2022/05/09 01:52:16;;;;;;;13.07;3.78;;;5.90;99.90;;;;;;5081634;28;20088;-79
2022/05/09 01:54:43;;;;;;;8.77;3.67;;;5.90;99.90;;;;;;5081359;28;20118;-79
2022/05/09 01:57:10;;;;;;;10.70;3.75;;;5.90;99.90;;;;;;5097593;28;20036;-79
2022/05/09 01:59:36;;;;;;;13.65;4.00;;;5.80;99.90;;;;;;5097824;28;20040;-79
2022/05/09 02:02:08;;;;;;;9.73;3.15;;;5.80;99.90;;;;;;5098021;28;20495;-79
2022/05/09 02:04:38;;;;;;;8.90;3.47;;;5.80;99.90;;;;;;5098299;28;20039;-80
2022/05/09 02:07:04;;;;;;;13.10;3.88;;;5.80;99.90;;;;;;5097912;28;20039;-79
2022/05/09 02:09:30;;;;;;;8.90;2.92;;;5.80;99.90;;;;;;5080502;28;20074;-79
2022/05/09 02:11:56;;;;;;;16.95;3.40;;;5.80;99.90;;;;;;5080674;28;20437;-79
2022/05/09 02:14:21;;;;;;;10.00;4.28;;;5.70;99.90;;;;;;5081752;28;20079;-79
2022/05/09 02:16:47;;;;;;;12.30;3.17;;;5.70;99.90;;;;;;5097841;28;20043;-80
2022/05/09 02:19:12;;;;;;;12.85;3.58;;;5.80;99.90;;;;;;5098285;28;20044;-80
2022/05/09 02:21:38;;;;;;;10.95;5.10;;;5.80;99.90;;;;;;5099922;28;20031;-79
2022/05/09 02:24:04;;;;;;;10.35;3.53;;;5.70;99.90;;;;;;5101326;28;20040;-79
2022/05/09 02:26:30;;;;;;;11.55;4.93;;;5.70;99.90;;;;;;5101174;28;20044;-79
2022/05/09 02:28:55;;;;;;;13.93;3.47;;;5.70;99.90;;;;;;5101512;28;20061;-79
2022/05/09 02:31:21;;;;;;;12.70;4.10;;;5.70;99.90;;;;;;5101070;28;20047;-79
2022/05/09 02:33:48;;;;;;;12.80;3.80;;;5.60;99.90;;;;;;5123518;28;20047;-79
2022/05/09 02:36:13;;;;;;;17.88;3.95;;;5.50;99.90;;;;;;5125397;28;20139;-79
2022/05/09 02:38:39;;;;;;;17.73;3.97;;;5.50;99.90;;;;;;5082528;28;20512;-80
2022/05/09 02:41:05;;;;;;;11.02;4.45;;;5.50;99.90;;;;;;5098354;28;20035;-80
2022/05/09 02:43:34;;;;;;;12.68;3.15;;;5.50;99.90;;;;;;5098987;28;20047;-79
2022/05/09 02:46:03;;;;;;;14.45;4.03;;;5.50;99.90;;;;;;5098738;28;20128;-80
2022/05/09 02:48:30;;;;;;;11.38;3.80;;;5.50;99.90;;;;;;5098425;28;20043;-80
2022/05/09 02:50:56;;;;;;;12.93;4.40;;;5.40;99.90;;;;;;5098539;28;20490;-79
2022/05/09 02:53:21;;;;;;;14.63;3.97;;;5.40;99.90;;;;;;5082479;28;20079;-80
2022/05/09 02:55:47;;;;;;;6.30;3.72;;;5.30;99.90;;;;;;5097979;28;20101;-80
2022/05/09 02:58:14;;;;;;;11.25;3.90;;;5.40;99.90;;;;;;5116899;28;20043;-80
2022/05/09 03:00:39;;;;;;;20.65;3.95;;;5.30;99.90;;;;;;5098939;28;20035;-79
2022/05/09 03:05:49;;;;;;;11.95;4.00;;;5.30;99.90;;;;;;5098365;28;20101;-80
2022/05/09 03:08:17;;;;;;;11.02;3.30;;;5.30;99.90;;;;;;5099471;28;20039;-79
2022/05/09 03:10:44;;;;;;;15.90;4.18;;;5.30;99.90;;;;;;5098569;28;20631;-80
2022/05/09 03:13:15;;;;;;;13.32;3.50;;;5.40;99.90;;;;;;5098856;28;20039;-80
2022/05/09 03:15:43;;;;;;;9.30;3.47;;;5.30;99.90;;;;;;5098984;28;20122;-80
2022/05/09 03:18:10;;;;;;;10.32;3.70;;;5.30;99.90;;;;;;5116682;28;20096;-80
2022/05/09 03:20:39;;;;;;;10.85;4.45;;;5.30;99.90;;;;;;5099840;28;20059;-79
2022/05/09 03:23:07;;;;;;;13.38;3.55;;;5.20;99.90;;;;;;5101214;28;20191;-80
2022/05/09 03:25:36;;;;;;;10.95;3.85;;;5.30;99.90;;;;;;5083623;28;20367;-79
2022/05/09 03:28:04;;;;;;;11.13;3.58;;;5.20;99.90;;;;;;5083932;28;20044;-79
2022/05/09 03:30:30;;;;;;;10.02;4.03;;;5.20;99.90;;;;;;5099946;28;20040;-79
2022/05/09 03:32:55;;;;;;;13.73;4.25;;;5.20;99.90;;;;;;5100486;28;20100;-79
2022/05/09 03:35:21;;;;;;;10.57;3.83;;;5.10;99.90;;;;;;5100337;28;20043;-79
2022/05/09 03:37:47;;;;;;;16.05;4.75;;;5.10;99.90;;;;;;5099623;28;20127;-79
2022/05/09 03:40:13;;;;;;;12.70;5.20;;;5.00;99.90;;;;;;5099837;28;20042;-79
2022/05/09 03:42:39;;;;;;;13.60;4.72;;;5.00;99.90;;;;;;5083828;28;20058;-79
2022/05/09 03:45:05;;;;;;;9.55;3.75;;;5.00;99.90;;;;;;5099943;28;20067;-79
2022/05/09 03:47:31;;;;;;;9.82;4.72;;;4.90;99.90;;;;;;5118251;28;20063;-79
2022/05/09 03:49:57;;;;;;;11.50;4.85;;;4.90;99.90;;;;;;5117894;28;20050;-79
2022/05/09 03:52:23;;;;;;;7.15;4.28;;;4.80;99.90;;;;;;5118099;28;20043;-79
2022/05/09 03:54:49;;;;;;;10.80;5.43;;;4.90;99.90;;;;;;5100450;28;20495;-79
2022/05/09 03:57:15;;;;;;;12.48;4.88;;;5.00;99.90;;;;;;5083484;28;20058;-79
2022/05/09 03:59:40;;;;;;;15.35;4.53;;;4.90;99.90;;;;;;5100599;28;20043;-79
2022/05/09 04:02:06;;;;;;;9.85;4.93;;;5.00;99.90;;;;;;5100279;28;20086;-79
2022/05/09 04:04:31;;;;;;;17.70;4.18;;;5.00;99.90;;;;;;5118580;28;20126;-79
2022/05/09 04:06:57;;;;;;;13.13;4.55;;;5.00;99.90;;;;;;5099991;28;20075;-79
2022/05/09 04:09:22;;;;;;;10.75;4.00;;;5.00;99.90;;;;;;5099866;28;20044;-79
2022/05/09 04:11:48;;;;;;;13.75;4.30;;;5.00;99.90;;;;;;5082754;28;20484;-79
2022/05/09 04:14:15;;;;;;;11.05;5.10;;;4.90;99.90;;;;;;5099962;28;20043;-79
2022/05/09 04:16:50;;;;;;;13.40;4.75;;;5.00;99.90;;;;;;5099713;28;20051;-79
2022/05/09 04:19:17;;;;;;;11.23;4.28;;;5.00;99.90;;;;;;5099317;28;20109;-79
2022/05/09 04:21:43;;;;;;;14.32;4.85;;;5.00;99.90;;;;;;5099191;28;20043;-79
2022/05/09 04:24:09;;;;;;;16.88;4.45;;;5.00;99.90;;;;;;5100444;28;20042;-79
2022/05/09 04:26:34;;;;;;;13.57;4.45;;;5.00;99.90;;;;;;5099315;28;20108;-79
2022/05/09 04:29:01;;;;;;;10.20;4.20;;;5.10;99.90;;;;;;5099534;28;20047;-79
2022/05/09 04:31:28;;;;;;;11.15;4.88;;;5.00;99.90;;;;;;5098531;28;20090;-77
2022/05/09 04:33:55;;;;;;;18.73;4.97;;;5.10;99.90;;;;;;5096786;28;20073;-78
2022/05/09 04:36:21;;;;;;;15.50;4.72;;;5.20;99.90;;;;;;5097220;28;20039;-78
2022/05/09 04:38:50;;;;;;;23.05;10.98;;;5.30;99.90;;;;;;5078937;28;20039;-77
2022/05/09 04:41:17;;;;;;;17.35;5.78;;;5.40;99.90;;;;;;5114584;28;20110;-77
2022/05/09 04:43:42;;;;;;;24.73;6.95;;;5.40;99.90;;;;;;5095423;28;20047;-77
2022/05/09 04:46:08;;;;;;;10.68;5.30;;;5.50;99.90;;;;;;5078927;28;20043;-78
2022/05/09 04:48:34;;;;;;;10.32;4.53;;;5.60;99.90;;;;;;5097963;28;20039;-77
2022/05/09 04:51:00;;;;;;;14.73;4.50;;;5.70;99.90;;;;;;5082987;28;20043;-78
2022/05/09 04:53:26;;;;;;;20.42;5.80;;;5.80;99.90;;;;;;5100266;28;20028;-78
2022/05/09 04:55:55;;;;;;;18.67;7.13;;;6.00;99.90;;;;;;5099191;28;20511;-78
2022/05/09 04:58:21;;;;;;;15.98;4.93;;;6.30;99.90;;;;;;5097259;28;20043;-78
2022/05/09 05:00:47;;;;;;;13.05;4.60;;;6.60;99.90;;;;;;5096902;28;20070;-78
2022/05/09 05:03:13;;;;;;;16.77;4.13;;;7.10;99.90;;;;;;5099784;28;20128;-78
2022/05/09 05:05:39;;;;;;;12.43;3.72;;;7.40;99.90;;;;;;5102515;28;20039;-78
2022/05/09 05:08:05;;;;;;;10.40;4.38;;;7.90;99.90;;;;;;5103403;28;20043;-78
2022/05/09 05:10:31;;;;;;;9.18;4.20;;;8.30;99.90;;;;;;5099250;28;20039;-78
2022/05/09 05:12:58;;;;;;;14.07;4.80;;;8.60;99.90;;;;;;5095401;28;20043;-78
2022/05/09 05:15:25;;;;;;;10.25;4.65;;;8.90;99.90;;;;;;5079105;28;20031;-78
2022/05/09 05:17:51;;;;;;;14.52;4.43;;;9.20;99.90;;;;;;5081560;28;20076;-79
2022/05/09 05:20:17;;;;;;;14.35;4.43;;;9.30;99.90;;;;;;5091848;28;20039;-78
2022/05/09 05:22:48;;;;;;;16.30;4.70;;;9.50;99.90;;;;;;5098245;28;20120;-78
2022/05/09 05:25:21;;;;;;;16.33;4.73;;;9.70;99.90;;;;;;5121217;28;20055;-78
2022/05/09 05:27:48;;;;;;;17.27;4.72;;;10.10;99.90;;;;;;5110537;28;20043;-79
2022/05/09 05:30:15;;;;;;;10.00;3.85;;;10.30;99.90;;;;;;5122072;28;20126;-79
2022/05/09 05:32:42;;;;;;;12.00;4.10;;;10.60;99.90;;;;;;5078849;28;20559;-79
2022/05/09 05:35:16;;;;;;;15.77;4.43;;;10.80;99.90;;;;;;5096331;28;20466;-79
2022/05/09 05:37:42;;;;;;;14.98;4.85;;;11.20;99.90;;;;;;5095809;28;20131;-79
2022/05/09 05:40:09;;;;;;;14.27;4.78;;;11.40;99.90;;;;;;5079224;28;20450;-78
2022/05/09 05:42:38;;;;;;;14.07;4.28;;;11.50;99.90;;;;;;5096398;28;20352;-79
2022/05/09 05:45:05;;;;;;;14.13;4.85;;;11.60;99.90;;;;;;5079710;28;20042;-79
2022/05/09 05:47:30;;;;;;;11.95;4.90;;;11.90;99.90;;;;;;5096330;28;20449;-79
2022/05/09 05:49:57;;;;;;;10.82;4.20;;;12.00;99.90;;;;;;5095904;28;20086;-79
2022/05/09 05:52:23;;;;;;;14.57;4.68;;;12.20;99.90;;;;;;5096295;28;20046;-79
2022/05/09 05:54:49;;;;;;;13.63;4.45;;;12.60;99.90;;;;;;5096711;28;20459;-79
2022/05/09 05:57:26;;;;;;;11.90;4.97;;;12.80;99.90;;;;;;5083363;28;20089;-78
2022/05/09 05:59:57;;;;;;;12.70;4.50;;;13.10;99.90;;;;;;5118022;28;20135;-79
2022/05/09 06:02:24;;;;;;;13.07;4.90;;;13.40;99.90;;;;;;5098972;28;20394;-79
2022/05/09 06:04:50;;;;;;;13.60;4.93;;;13.70;99.90;;;;;;5099199;28;20039;-79
2022/05/09 06:07:19;;;;;;;19.35;4.90;;;13.90;99.90;;;;;;5100162;28;20081;-79
2022/05/09 06:09:45;;;;;;;14.55;4.43;;;14.30;99.90;;;;;;5100228;27;20047;-79
2022/05/09 06:12:14;;;;;;;19.90;4.90;;;14.60;99.90;;;;;;5112737;27;20043;-79
2022/05/09 06:14:40;;;;;;;14.48;5.03;;;14.80;99.90;;;;;;5124460;27;20099;-79
2022/05/09 06:17:07;;;;;;;10.75;4.32;;;15.00;99.90;;;;;;5110523;27;20101;-80
2022/05/09 06:19:33;;;;;;;19.92;4.57;;;15.20;99.90;;;;;;5116786;27;20042;-79
2022/05/09 06:22:00;;;;;;;13.70;4.30;;;15.40;99.90;;;;;;5110945;27;20354;-79
2022/05/09 06:24:26;;;;;;;11.77;4.50;;;15.60;99.90;;;;;;5102016;27;20038;-79
2022/05/09 06:26:52;;;;;;;11.07;4.13;;;16.00;99.90;;;;;;5085719;28;20108;-79
2022/05/09 06:29:18;;;;;;;17.10;4.60;;;16.30;99.90;;;;;;5117638;27;20529;-78
2022/05/09 06:31:44;;;;;;;17.25;4.85;;;16.60;99.90;;;;;;5120106;27;20035;-79
2022/05/09 06:34:12;;;;;;;14.50;4.43;;;16.80;99.90;;;;;;5138639;27;20043;-79
2022/05/09 06:36:39;;;;;;;8.15;4.30;;;17.00;99.90;;;;;;5091714;28;20040;-79
2022/05/09 06:39:06;;;;;;;13.20;4.60;;;17.10;99.90;;;;;;5099889;27;20489;-79
2022/05/09 06:41:32;;;;;;;12.02;3.78;;;17.40;99.90;;;;;;5119985;27;20047;-79
2022/05/09 06:43:58;;;;;;;14.07;4.75;;;17.60;99.90;;;;;;5104160;27;20397;-79
2022/05/09 06:46:24;;;;;;;13.80;4.63;;;17.70;99.90;;;;;;5113359;28;20119;-77
2022/05/09 06:48:49;;;;;;;21.38;5.40;;;18.00;99.90;;;;;;5106759;28;20032;-80
2022/05/09 06:51:15;;;;;;;12.45;4.32;;;18.20;99.90;;;;;;5083609;28;20298;-79
2022/05/09 06:53:41;;;;;;;15.05;4.30;;;18.50;99.90;;;;;;5082862;28;20502;-83
2022/05/09 06:56:08;;;;;;;15.98;5.22;;;18.60;99.90;;;;;;5095531;27;20042;-79
2022/05/09 06:58:34;;;;;;;12.00;4.05;;;18.50;99.90;;;;;;5110708;27;20047;-80
2022/05/09 07:00:59;;;;;;;13.70;4.78;;;18.30;99.90;;;;;;5113141;28;20466;-79
2022/05/09 07:03:27;;;;;;;16.45;5.00;;;18.20;99.90;;;;;;5100779;28;20043;-79
2022/05/09 07:05:55;;;;;;;14.18;4.80;;;18.10;99.90;;;;;;5111173;27;20141;-79
2022/05/09 07:08:23;;;;;;;12.70;4.40;;;17.70;99.90;;;;;;5140961;27;20035;-78
2022/05/09 07:10:49;;;;;;;10.98;4.30;;;17.50;99.90;;;;;;5121300;27;20047;-78
2022/05/09 07:13:14;;;;;;;16.42;5.53;;;17.70;99.90;;;;;;5115443;27;20039;-78
2022/05/09 07:15:40;;;;;;;14.02;4.43;;;17.60;99.90;;;;;;5115494;27;20043;-80
2022/05/09 07:18:06;;;;;;;13.50;4.70;;;17.50;99.90;;;;;;5105138;27;20047;-79
2022/05/09 07:20:34;;;;;;;12.27;4.85;;;17.50;99.90;;;;;;5109624;28;20039;-80
2022/05/09 07:23:10;;;;;;;12.35;4.53;;;17.70;99.90;;;;;;5107657;27;20031;-79
2022/05/09 07:25:38;;;;;;;17.23;4.80;;;17.90;99.90;;;;;;5111753;28;20032;-79
2022/05/09 07:28:04;;;;;;;14.75;5.28;;;18.00;99.90;;;;;;5085465;28;20063;-79
2022/05/09 07:30:30;;;;;;;10.32;4.65;;;18.20;99.90;;;;;;5102723;28;20472;-79
2022/05/09 07:32:56;;;;;;;18.55;4.97;;;18.30;99.90;;;;;;5109531;28;20082;-79
2022/05/09 07:35:22;;;;;;;11.70;4.45;;;18.60;99.90;;;;;;5117145;27;20035;-79
2022/05/09 07:37:48;;;;;;;18.92;4.97;;;18.90;99.90;;;;;;5116960;28;20036;-79
2022/05/09 07:40:18;;;;;;;13.50;4.60;;;19.10;99.90;;;;;;5104657;27;20062;-79
2022/05/09 07:42:45;;;;;;;13.93;4.82;;;19.40;99.40;;;;;;5099007;28;20076;-79
2022/05/09 07:45:14;;;;;;;12.63;4.63;;;19.70;99.10;;;;;;5115752;27;20039;-78
2022/05/09 07:47:40;;;;;;;11.35;4.90;;;20.10;97.20;;;;;;5104596;28;20569;-76
2022/05/09 07:50:08;;;;;;;16.30;4.47;;;20.30;97.20;;;;;;5096316;28;20126;-76
2022/05/09 07:52:34;;;;;;;16.33;5.00;;;20.40;96.30;;;;;;5116140;28;20537;-79
2022/05/09 07:55:00;;;;;;;12.82;5.00;;;20.60;97.40;;;;;;5118410;27;20119;-79
2022/05/09 07:57:27;;;;;;;11.00;4.50;;;20.80;97.20;;;;;;5117810;28;20096;-79
2022/05/09 07:59:52;;;;;;;14.85;4.38;;;20.90;96.00;;;;;;5096786;28;20070;-76
2022/05/09 08:02:18;;;;;;;20.25;5.43;;;21.00;94.20;;;;;;5106399;27;20050;-76
2022/05/09 08:04:43;;;;;;;13.27;4.82;;;21.10;93.90;;;;;;5109791;28;20482;-77
2022/05/09 08:07:09;;;;;;;12.23;4.15;;;21.30;94.30;;;;;;5132177;27;20043;-77
2022/05/09 08:09:35;;;;;;;16.45;4.38;;;21.50;93.30;;;;;;5117925;27;20084;-78
2022/05/09 08:12:03;;;;;;;11.45;3.95;;;21.60;91.60;;;;;;5100247;28;20039;-77
2022/05/09 08:14:29;;;;;;;13.15;4.25;;;21.70;88.90;;;;;;5111686;28;20078;-77
2022/05/09 08:16:55;;;;;;;17.73;4.45;;;21.60;89.50;;;;;;5095735;28;20036;-77
2022/05/09 08:19:20;;;;;;;14.18;4.05;;;21.80;91.70;;;;;;5105427;27;20091;-77
2022/05/09 08:21:52;;;;;;;11.75;5.15;;;21.90;89.40;;;;;;5130760;27;20094;-77
2022/05/09 08:24:18;;;;;;;18.05;4.38;;;22.00;85.80;;;;;;5091817;27;20039;-77
2022/05/09 08:26:43;;;;;;;13.13;4.40;;;22.20;84.20;;;;;;5114648;27;20100;-77
2022/05/09 08:29:09;;;;;;;10.73;4.20;;;22.20;84.10;;;;;;5098651;27;20045;-77
2022/05/09 08:31:35;;;;;;;10.75;4.22;;;22.30;84.50;;;;;;5104836;28;20490;-77
2022/05/09 08:34:01;;;;;;;16.65;4.60;;;22.40;78.50;;;;;;5094437;28;20082;-77
2022/05/09 08:39:11;;;;;;;20.40;6.72;;;22.40;81.20;;;;;;5112471;28;20044;-77
2022/05/09 08:41:55;;;;;;;13.43;4.03;;;22.60;77.70;;;;;;5110575;27;20043;-77
2022/05/09 08:44:27;;;;;;;12.20;4.85;;;22.70;56.00;;;;;;5127345;27;20055;-77
2022/05/09 08:47:17;;;;;;;12.50;4.07;;;22.60;60.50;;;;;;5084045;28;20494;-77
2022/05/09 08:49:57;;;;;;;13.57;3.90;;;22.50;58.10;;;;;;5105883;27;20114;-78
2022/05/09 08:52:35;;;;;;;10.80;3.22;;;22.40;65.00;;;;;;5083094;27;20043;-77
2022/05/09 08:55:02;;;;;;;9.65;3.55;;;22.30;60.10;;;;;;5105592;27;20623;-77
2022/05/09 08:57:52;;;;;;;9.38;3.30;;;22.40;57.80;;;;;;5104285;28;20047;-77
2022/05/09 09:00:20;;;;;;;13.98;4.05;;;22.30;54.10;;;;;;5094414;28;20047;-76
2022/05/09 09:03:12;;;;;;;11.48;4.00;;;22.10;60.70;;;;;;5100002;27;20520;-77
2022/05/09 09:05:42;;;;;;;12.43;3.20;;;22.40;59.50;;;;;;5077271;28;20084;-77
2022/05/09 09:08:46;;;;;;;14.73;3.83;;;22.40;61.10;;;;;;5093404;28;20398;-77
2022/05/09 09:11:45;;;;;;;6.38;2.28;;;22.60;62.30;;;;;;5031042;28;20072;-77
2022/05/09 09:14:22;;;;;;;7.30;2.30;;;22.90;53.80;;;;;;5031376;28;20076;-76
2022/05/09 09:17:18;;;;;;;11.13;3.13;;;23.20;52.40;;;;;;5087063;28;20113;-77
2022/05/09 09:20:13;;;;;;;10.43;2.53;;;23.40;48.80;;;;;;5116133;28;20035;-76
2022/05/09 09:22:48;;;;;;;9.40;2.35;;;23.30;50.30;;;;;;5102604;28;20032;-76
2022/05/09 09:25:24;;;;;;;12.30;2.80;;;23.30;49.70;;;;;;5102642;28;20043;-77
2022/05/09 09:27:55;;;;;;;7.80;2.55;;;23.30;48.60;;;;;;5123501;28;20032;-76
2022/05/09 09:30:23;;;;;;;9.70;2.75;;;23.30;49.00;;;;;;5109889;27;20086;-75
2022/05/09 09:32:59;;;;;;;10.30;2.75;;;23.50;50.50;;;;;;5106629;27;20039;-76
2022/05/09 09:35:34;;;;;;;8.90;2.97;;;23.80;48.10;;;;;;5098657;28;20128;-76
2022/05/09 09:38:41;;;;;;;8.63;2.92;;;23.90;49.60;;;;;;5097076;28;20122;-75
2022/05/09 09:41:19;;;;;;;8.85;2.75;;;23.70;47.60;;;;;;5102507;27;20043;-75
2022/05/09 09:43:46;;;;;;;10.07;2.10;;;23.40;43.80;;;;;;5105168;28;20466;-76
2022/05/09 09:46:12;;;;;;;11.13;3.47;;;23.40;48.10;;;;;;5103007;27;20050;-76
2022/05/09 09:48:39;;;;;;;7.60;2.88;;;23.60;47.90;;;;;;5103891;28;20355;-76
2022/05/09 09:51:17;;;;;;;8.50;2.58;;;23.80;47.70;;;;;;5098678;27;20043;-76
2022/05/09 09:53:59;;;;;;;11.77;2.42;;;23.80;46.10;;;;;;5104966;28;20039;-76
2022/05/09 09:56:27;;;;;;;7.75;2.22;;;23.90;44.80;;;;;;5106099;27;20084;-77
2022/05/09 09:58:57;;;;;;;5.97;2.15;;;23.90;45.20;;;;;;5105348;27;20043;-76
2022/05/09 10:01:30;;;;;;;5.30;1.75;;;24.00;45.30;;;;;;5111173;27;20250;-76
2022/05/09 10:04:11;;;;;;;8.43;2.35;;;24.00;46.90;;;;;;5104657;28;20092;-77
2022/05/09 10:07:01;;;;;;;10.50;2.75;;;24.40;44.00;;;;;;5096472;28;20071;-76
2022/05/09 10:09:32;;;;;;;4.78;1.83;;;24.50;45.20;;;;;;5098672;27;20497;-77
2022/05/09 10:12:31;;;;;;;8.40;2.10;;;24.70;45.00;;;;;;5105264;27;20079;-77
2022/05/09 10:14:57;;;;;;;9.05;2.30;;;24.80;43.70;;;;;;5067990;27;20501;-77
2022/05/09 10:17:25;;;;;;;6.13;1.90;;;24.80;44.10;;;;;;5116327;27;20118;-77
2022/05/09 10:19:53;;;;;;;6.82;2.13;;;24.70;43.80;;;;;;5115349;27;20058;-77
2022/05/09 10:25:22;;;;;;;7.15;3.00;;;24.40;45.20;;;;;;5104237;28;20135;-77
2022/05/09 10:28:03;;;;;;;;;;;24.30;44.30;;;;;;5103720;27;20257;-76
2022/05/09 10:30:32;;;;;;;7.78;2.35;;;24.30;46.00;;;;;;5102453;27;20006;-77
2022/05/09 10:33:04;;;;;;;11.80;2.67;;;24.20;45.40;;;;;;5116689;27;20103;-78
2022/05/09 10:35:53;;;;;;;8.40;2.28;;;24.30;44.70;;;;;;5135233;27;20038;-74
2022/05/09 10:38:40;;;;;;;9.00;3.03;;;24.30;45.80;;;;;;5116167;27;20092;-78
2022/05/09 10:41:37;;;;;;;8.80;3.75;;;24.20;44.50;;;;;;5098072;27;20043;-77
2022/05/09 10:44:29;;;;;;;9.55;2.42;;;24.20;44.40;;;;;;5108692;27;20055;-78
2022/05/09 10:47:01;;;;;;;10.77;3.50;;;24.40;45.50;;;;;;5116231;27;20431;-78
2022/05/09 10:49:45;;;;;;;;;;;24.40;45.90;;;;;;5099273;27;20130;-78
2022/05/09 10:52:11;;;;;;;10.32;2.80;;;24.40;44.60;;;;;;5115999;27;20027;-78
2022/05/09 10:54:53;;;;;;;7.88;2.72;;;24.50;45.70;;;;;;5116169;27;20137;-77
2022/05/09 10:57:41;;;;;;;7.38;2.65;;;24.50;43.90;;;;;;5115693;27;20401;-77
2022/05/09 11:00:19;;;;;;;7.18;2.50;;;24.20;44.20;;;;;;5115458;27;20401;-76
2022/05/09 11:03:00;;;;;;;9.55;2.60;;;24.00;44.50;;;;;;5115762;27;20043;-76
2022/05/09 11:05:32;;;;;;;10.18;3.42;;;24.00;45.80;;;;;;5116064;27;20541;-77
2022/05/09 11:08:29;;;;;;;7.63;2.35;;;24.10;45.70;;;;;;5115797;27;20475;-77
2022/05/09 11:11:27;;;;;;;6.90;2.15;;;24.20;45.90;;;;;;5114637;27;20412;-77
2022/05/09 11:14:14;;;;;;;7.32;2.25;;;24.30;44.40;;;;;;5115663;27;20058;-77
2022/05/09 11:17:13;;;;;;;8.68;2.60;;;24.50;43.80;;;;;;5115540;27;20079;-77
2022/05/09 11:20:00;;;;;;;17.13;3.00;;;24.60;44.30;;;;;;5115177;27;20043;-78
2022/05/09 11:22:35;;;;;;;6.70;2.33;;;24.50;45.50;;;;;;5115398;27;20050;-76
2022/05/09 11:25:15;;;;;;;7.00;2.17;;;24.50;47.50;;;;;;5115472;27;20039;-78
2022/05/09 11:27:52;;;;;;;4.20;1.60;;;24.40;46.60;;;;;;5115645;27;20400;-76
2022/05/09 11:30:36;;;;;;;7.72;2.58;;;24.30;46.00;;;;;;5114611;27;20441;-77
2022/05/09 11:33:30;;;;;;;9.60;2.42;;;24.40;45.70;;;;;;5115527;27;20477;-78
2022/05/09 11:36:21;;;;;;;10.20;2.40;;;24.30;46.90;;;;;;5115109;27;20054;-77
2022/05/09 11:39:26;;;;;;;5.13;2.30;;;24.40;45.80;;;;;;5063421;27;20066;-77
2022/05/09 11:45:18;;;;;;;10.07;2.75;;;24.80;44.70;;;;;;5114845;27;20104;-78
2022/05/09 11:47:50;;;;;;;6.43;2.25;;;25.10;45.00;;;;;;5114857;27;20039;-78
2022/05/09 11:50:24;;;;;;;7.88;2.50;;;25.00;43.90;;;;;;5114660;27;20496;-78
2022/05/09 11:52:52;;;;;;;8.35;2.40;;;24.90;44.10;;;;;;5115244;27;20075;-77
2022/05/09 11:55:20;;;;;;;8.43;2.60;;;24.80;45.00;;;;;;5114540;27;20412;-78
2022/05/09 11:57:55;;;;;;;7.20;2.65;;;25.00;45.20;;;;;;5114603;27;20043;-77
2022/05/09 12:00:27;;;;;;;6.72;2.22;;;25.20;43.90;;;;;;5132557;27;20432;-77
2022/05/09 12:02:56;;;;;;;5.15;2.17;;;25.30;44.80;;;;;;5114612;27;20043;-77
2022/05/09 12:05:29;;;;;;;7.53;2.20;;;25.30;45.00;;;;;;5114403;27;20489;-77
2022/05/09 12:08:12;;;;;;;8.63;1.88;;;25.20;43.60;;;;;;5114778;27;20100;-78
2022/05/09 12:10:40;;;;;;;7.38;1.90;;;25.00;44.30;;;;;;5114062;27;20514;-77
2022/05/09 12:13:12;;;;;;;3.83;1.85;;;24.70;44.30;;;;;;5114605;27;20045;-78
2022/05/09 12:15:45;;;;;;;7.45;1.90;;;24.70;44.80;;;;;;5114460;27;20050;-77
2022/05/09 12:18:24;;;;;;;7.28;1.98;;;24.70;44.30;;;;;;5114397;27;20051;-78
2022/05/09 12:20:52;;;;;;;6.80;2.53;;;24.70;42.70;;;;;;5114467;27;20043;-78
2022/05/09 12:23:35;;;;;;;4.00;1.52;;;24.70;44.60;;;;;;5132592;27;20100;-78
2022/05/09 12:26:03;;;;;;;4.30;2.00;;;25.00;42.80;;;;;;5114127;27;20043;-78
2022/05/09 12:28:39;;;;;;;3.47;1.75;;;25.00;42.90;;;;;;5114125;27;20516;-76
2022/05/09 12:31:32;;;;;;;6.55;1.85;;;24.90;44.10;;;;;;5096770;27;20446;-77
2022/05/09 12:33:58;;;;;;;9.20;1.88;;;24.90;45.10;;;;;;5103979;27;20180;-78
2022/05/09 12:36:35;;;;;;;8.02;1.90;;;24.90;44.50;;;;;;5113957;27;20122;-79
2022/05/09 12:39:25;;;;;;;7.82;1.63;;;25.00;43.40;;;;;;5113934;27;20557;-78
2022/05/09 12:41:59;;;;;;;5.93;1.63;;;25.10;42.40;;;;;;5096907;27;20047;-78
2022/05/09 12:44:44;;;;;;;9.52;2.47;;;25.30;43.20;;;;;;5113670;27;20046;-78
2022/05/09 12:47:13;;;;;;;6.72;1.83;;;25.30;42.20;;;;;;5113696;27;20043;-78
2022/05/09 12:49:45;;;;;;;6.10;2.10;;;25.00;42.40;;;;;;5113319;27;20439;-78
2022/05/09 12:52:18;;;;;;;4.88;1.90;;;24.90;42.80;;;;;;5113796;27;20050;-79
2022/05/09 12:57:36;;;;;;;4.10;1.70;;;24.90;44.30;;;;;;5113512;27;20434;-78
2022/05/09 13:00:16;;;;;;;8.68;1.77;;;25.20;43.50;;;;;;5113419;27;20173;-78
2022/05/09 13:02:42;;;;;;;4.30;1.58;;;25.30;43.30;;;;;;5113541;28;20100;-79
2022/05/09 13:05:10;;;;;;;8.23;1.80;;;25.40;43.00;;;;;;5131491;27;20054;-78
2022/05/09 13:08:00;;;;;;;6.70;1.98;;;25.30;43.30;;;;;;5113737;27;20086;-78
2022/05/09 13:10:27;;;;;;;8.30;1.98;;;25.10;42.60;;;;;;5112977;28;20043;-79
2022/05/09 13:13:00;;;;;;;11.48;2.22;;;24.90;43.50;;;;;;5113381;28;20046;-78
2022/05/09 13:15:27;;;;;;;4.53;1.73;;;24.90;43.20;;;;;;5113708;28;20038;-78
2022/05/09 13:18:03;;;;;;;4.90;1.55;;;24.90;43.10;;;;;;5113333;28;20064;-78
2022/05/09 13:20:47;;;;;;;7.00;1.80;;;25.20;42.60;;;;;;5113017;28;20043;-79